sensor_id;sensor_type;location;lat;lon;timestamp;temperature;humidity
12720;DHT22;6424;48.520;11.228;2023-04-03T00:00:44;2.50;99.90
12720;DHT22;6424;48.520;11.228;2023-04-03T00:03:25;2.60;99.90
12720;DHT22;6424;48.520;11.228;2023-04-03T00:06:06;2.50;99.90
12720;DHT22;6424;48.520;11.228;2023-04-03T00:08:47;2.50;99.90
12720;DHT22;6424;48.520;11.228;2023-04-03T00:11:28;2.50;99.90
12720;DHT22;6424;48.520;11.228;2023-04-03T00:13:54;2.50;99.90
12720;DHT22;6424;48.520;11.228;2023-04-03T00:16:20;2.50;99.90
12720;DHT22;6424;48.520;11.228;2023-04-03T00:19:01;2.50;99.90
12720;DHT22;6424;48.520;11.228;2023-04-03T00:21:41;2.50;99.90
12720;DHT22;6424;48.520;11.228;2023-04-03T00:24:22;2.50;99.90
12720;DHT22;6424;48.520;11.228;2023-04-03T00:27:03;2.50;99.90
12720;DHT22;6424;48.520;11.228;2023-04-03T00:29:44;2.40;99.90
12720;DHT22;6424;48.520;11.228;2023-04-03T00:32:25;2.40;99.90
12720;DHT22;6424;48.520;11.228;2023-04-03T00:34:50;2.50;99.90
12720;DHT22;6424;48.520;11.228;2023-04-03T00:37:31;2.60;99.90
12720;DHT22;6424;48.520;11.228;2023-04-03T00:40:13;2.60;99.90
12720;DHT22;6424;48.520;11.228;2023-04-03T00:42:58;2.60;99.90
12720;DHT22;6424;48.520;11.228;2023-04-03T00:45:43;2.50;99.90
12720;DHT22;6424;48.520;11.228;2023-04-03T00:48:29;2.50;99.90
12720;DHT22;6424;48.520;11.228;2023-04-03T00:51:15;2.50;99.90
12720;DHT22;6424;48.520;11.228;2023-04-03T00:54:02;2.50;99.90
12720;DHT22;6424;48.520;11.228;2023-04-03T00:56:45;2.50;99.90
12720;DHT22;6424;48.520;11.228;2023-04-03T00:59:14;2.50;99.90
12720;DHT22;6424;48.520;11.228;2023-04-03T01:01:56;2.50;99.90
12720;DHT22;6424;48.520;11.228;2023-04-03T01:04:40;2.50;99.90
12720;DHT22;6424;48.520;11.228;2023-04-03T01:07:22;2.50;99.90
12720;DHT22;6424;48.520;11.228;2023-04-03T01:10:08;2.40;99.90
12720;DHT22;6424;48.520;11.228;2023-04-03T01:12:50;2.40;99.90
12720;DHT22;6424;48.520;11.228;2023-04-03T01:15:31;2.30;99.90
12720;DHT22;6424;48.520;11.228;2023-04-03T01:18:15;2.30;99.90
12720;DHT22;6424;48.520;11.228;2023-04-03T01:21:06;2.40;99.90
12720;DHT22;6424;48.520;11.228;2023-04-03T01:26:34;2.40;99.90
12720;DHT22;6424;48.520;11.228;2023-04-03T01:29:16;2.40;99.90
12720;DHT22;6424;48.520;11.228;2023-04-03T01:31:59;2.40;99.90
12720;DHT22;6424;48.520;11.228;2023-04-03T01:34:40;2.40;99.90
12720;DHT22;6424;48.520;11.228;2023-04-03T01:37:21;2.40;99.90
12720;DHT22;6424;48.520;11.228;2023-04-03T01:40:02;2.40;99.90
12720;DHT22;6424;48.520;11.228;2023-04-03T01:42:43;2.40;99.90
12720;DHT22;6424;48.520;11.228;2023-04-03T01:45:24;2.40;99.90
12720;DHT22;6424;48.520;11.228;2023-04-03T01:47:50;2.40;99.90
12720;DHT22;6424;48.520;11.228;2023-04-03T01:50:31;2.40;99.90
12720;DHT22;6424;48.520;11.228;2023-04-03T01:53:13;2.50;99.90
12720;DHT22;6424;48.520;11.228;2023-04-03T01:55:54;2.40;99.90
12720;DHT22;6424;48.520;11.228;2023-04-03T01:58:35;2.40;99.90
12720;DHT22;6424;48.520;11.228;2023-04-03T02:01:16;2.30;99.90
12720;DHT22;6424;48.520;11.228;2023-04-03T02:03:57;2.30;99.90
12720;DHT22;6424;48.520;11.228;2023-04-03T02:06:38;2.30;99.90
12720;DHT22;6424;48.520;11.228;2023-04-03T02:09:04;2.30;99.90
12720;DHT22;6424;48.520;11.228;2023-04-03T02:11:44;2.30;99.90
12720;DHT22;6424;48.520;11.228;2023-04-03T02:14:10;2.30;99.90
12720;DHT22;6424;48.520;11.228;2023-04-03T02:16:51;2.30;99.90
12720;DHT22;6424;48.520;11.228;2023-04-03T02:19:17;2.30;99.90
12720;DHT22;6424;48.520;11.228;2023-04-03T02:21:57;2.30;99.90
12720;DHT22;6424;48.520;11.228;2023-04-03T02:24:38;2.40;99.90
12720;DHT22;6424;48.520;11.228;2023-04-03T02:27:20;2.30;99.90
12720;DHT22;6424;48.520;11.228;2023-04-03T02:30:02;2.20;99.90
12720;DHT22;6424;48.520;11.228;2023-04-03T02:32:28;2.20;99.90
12720;DHT22;6424;48.520;11.228;2023-04-03T02:35:10;2.30;99.90
12720;DHT22;6424;48.520;11.228;2023-04-03T02:37:50;2.20;99.90
12720;DHT22;6424;48.520;11.228;2023-04-03T02:40:31;2.20;99.90
12720;DHT22;6424;48.520;11.228;2023-04-03T02:42:57;2.20;99.90
12720;DHT22;6424;48.520;11.228;2023-04-03T02:45:38;2.20;99.90
12720;DHT22;6424;48.520;11.228;2023-04-03T02:48:19;2.20;99.90
12720;DHT22;6424;48.520;11.228;2023-04-03T02:50:59;2.20;99.90
12720;DHT22;6424;48.520;11.228;2023-04-03T02:53:41;2.20;99.90
12720;DHT22;6424;48.520;11.228;2023-04-03T02:56:22;2.20;99.90
12720;DHT22;6424;48.520;11.228;2023-04-03T02:59:03;2.20;99.90
12720;DHT22;6424;48.520;11.228;2023-04-03T03:01:29;2.20;99.90
12720;DHT22;6424;48.520;11.228;2023-04-03T03:04:11;2.20;99.90
12720;DHT22;6424;48.520;11.228;2023-04-03T03:06:52;2.10;99.90
12720;DHT22;6424;48.520;11.228;2023-04-03T03:09:33;2.10;99.90
12720;DHT22;6424;48.520;11.228;2023-04-03T03:11:59;2.10;99.90
12720;DHT22;6424;48.520;11.228;2023-04-03T03:14:40;2.10;99.90
12720;DHT22;6424;48.520;11.228;2023-04-03T03:17:23;2.10;99.90
12720;DHT22;6424;48.520;11.228;2023-04-03T03:20:05;2.10;99.90
12720;DHT22;6424;48.520;11.228;2023-04-03T03:22:46;2.10;99.90
12720;DHT22;6424;48.520;11.228;2023-04-03T03:25:27;2.00;99.90
12720;DHT22;6424;48.520;11.228;2023-04-03T03:28:08;2.00;99.90
12720;DHT22;6424;48.520;11.228;2023-04-03T03:30:48;2.00;99.90
12720;DHT22;6424;48.520;11.228;2023-04-03T03:33:30;2.00;99.90
12720;DHT22;6424;48.520;11.228;2023-04-03T03:36:11;2.00;99.90
12720;DHT22;6424;48.520;11.228;2023-04-03T03:38:51;2.00;99.90
12720;DHT22;6424;48.520;11.228;2023-04-03T03:41:32;2.00;99.90
12720;DHT22;6424;48.520;11.228;2023-04-03T03:44:13;2.00;99.90
12720;DHT22;6424;48.520;11.228;2023-04-03T03:46:54;2.00;99.90
12720;DHT22;6424;48.520;11.228;2023-04-03T03:49:35;2.00;99.90
12720;DHT22;6424;48.520;11.228;2023-04-03T03:52:15;2.00;99.90
12720;DHT22;6424;48.520;11.228;2023-04-03T03:54:56;2.00;99.90
12720;DHT22;6424;48.520;11.228;2023-04-03T03:57:37;2.00;99.90
12720;DHT22;6424;48.520;11.228;2023-04-03T04:00:18;2.00;99.90
12720;DHT22;6424;48.520;11.228;2023-04-03T04:02:44;2.00;99.90
12720;DHT22;6424;48.520;11.228;2023-04-03T04:05:25;1.90;99.90
12720;DHT22;6424;48.520;11.228;2023-04-03T04:08:06;1.90;99.90
12720;DHT22;6424;48.520;11.228;2023-04-03T04:10:32;1.90;99.90
12720;DHT22;6424;48.520;11.228;2023-04-03T04:13:13;1.90;99.90
12720;DHT22;6424;48.520;11.228;2023-04-03T04:15:54;2.00;99.90
12720;DHT22;6424;48.520;11.228;2023-04-03T04:18:34;1.90;99.90
12720;DHT22;6424;48.520;11.228;2023-04-03T04:21:15;1.90;99.90
12720;DHT22;6424;48.520;11.228;2023-04-03T04:23:56;1.90;99.90
12720;DHT22;6424;48.520;11.228;2023-04-03T04:26:37;1.90;99.90
12720;DHT22;6424;48.520;11.228;2023-04-03T04:29:03;2.00;99.90
12720;DHT22;6424;48.520;11.228;2023-04-03T04:31:43;2.00;99.90
12720;DHT22;6424;48.520;11.228;2023-04-03T04:34:24;2.00;99.90
12720;DHT22;6424;48.520;11.228;2023-04-03T04:37:05;2.00;99.90
12720;DHT22;6424;48.520;11.228;2023-04-03T04:39:46;1.90;99.90
12720;DHT22;6424;48.520;11.228;2023-04-03T04:42:26;1.90;99.90
12720;DHT22;6424;48.520;11.228;2023-04-03T04:45:07;1.90;99.90
12720;DHT22;6424;48.520;11.228;2023-04-03T04:47:48;1.90;99.90
12720;DHT22;6424;48.520;11.228;2023-04-03T04:50:31;1.80;99.90
12720;DHT22;6424;48.520;11.228;2023-04-03T04:53:12;1.90;99.90
12720;DHT22;6424;48.520;11.228;2023-04-03T04:55:53;1.90;99.90
12720;DHT22;6424;48.520;11.228;2023-04-03T04:58:34;1.80;99.90
12720;DHT22;6424;48.520;11.228;2023-04-03T05:01:15;1.80;99.90
12720;DHT22;6424;48.520;11.228;2023-04-03T05:03:56;1.80;99.90
12720;DHT22;6424;48.520;11.228;2023-04-03T05:06:37;1.80;99.90
12720;DHT22;6424;48.520;11.228;2023-04-03T05:09:17;1.80;99.90
12720;DHT22;6424;48.520;11.228;2023-04-03T05:12:00;1.80;99.90
12720;DHT22;6424;48.520;11.228;2023-04-03T05:14:41;1.90;99.90
12720;DHT22;6424;48.520;11.228;2023-04-03T05:17:21;1.90;99.90
12720;DHT22;6424;48.520;11.228;2023-04-03T05:20:03;1.90;99.90
12720;DHT22;6424;48.520;11.228;2023-04-03T05:22:45;1.90;99.90
12720;DHT22;6424;48.520;11.228;2023-04-03T05:25:25;1.80;99.90
12720;DHT22;6424;48.520;11.228;2023-04-03T05:28:07;1.80;99.90
12720;DHT22;6424;48.520;11.228;2023-04-03T05:30:55;1.80;99.90
12720;DHT22;6424;48.520;11.228;2023-04-03T05:33:36;1.90;99.90
12720;DHT22;6424;48.520;11.228;2023-04-03T05:36:16;1.90;99.90
12720;DHT22;6424;48.520;11.228;2023-04-03T05:38:57;1.90;99.90
12720;DHT22;6424;48.520;11.228;2023-04-03T05:41:39;2.00;99.90
12720;DHT22;6424;48.520;11.228;2023-04-03T05:44:05;2.00;99.90
12720;DHT22;6424;48.520;11.228;2023-04-03T05:46:46;2.00;99.90
12720;DHT22;6424;48.520;11.228;2023-04-03T05:49:26;2.00;99.90
12720;DHT22;6424;48.520;11.228;2023-04-03T05:52:22;2.00;99.90
12720;DHT22;6424;48.520;11.228;2023-04-03T05:55:04;2.00;99.90
12720;DHT22;6424;48.520;11.228;2023-04-03T05:57:45;2.00;99.90
12720;DHT22;6424;48.520;11.228;2023-04-03T06:00:25;2.00;99.90
12720;DHT22;6424;48.520;11.228;2023-04-03T06:03:08;2.10;99.90
12720;DHT22;6424;48.520;11.228;2023-04-03T06:05:48;2.10;99.90
12720;DHT22;6424;48.520;11.228;2023-04-03T06:08:29;2.10;99.90
12720;DHT22;6424;48.520;11.228;2023-04-03T06:11:10;2.20;99.90
12720;DHT22;6424;48.520;11.228;2023-04-03T06:13:51;2.20;99.90
12720;DHT22;6424;48.520;11.228;2023-04-03T06:16:32;2.30;99.90
12720;DHT22;6424;48.520;11.228;2023-04-03T06:19:13;2.40;99.90
12720;DHT22;6424;48.520;11.228;2023-04-03T06:21:54;2.40;99.90
12720;DHT22;6424;48.520;11.228;2023-04-03T06:24:20;2.40;99.90
12720;DHT22;6424;48.520;11.228;2023-04-03T06:27:03;2.60;99.90
12720;DHT22;6424;48.520;11.228;2023-04-03T06:29:44;2.60;99.90
12720;DHT22;6424;48.520;11.228;2023-04-03T06:32:25;2.60;99.90
12720;DHT22;6424;48.520;11.228;2023-04-03T06:35:07;2.60;99.90
12720;DHT22;6424;48.520;11.228;2023-04-03T06:37:34;2.70;99.90
12720;DHT22;6424;48.520;11.228;2023-04-03T06:39:59;2.70;99.90
12720;DHT22;6424;48.520;11.228;2023-04-03T06:42:43;2.70;99.90
12720;DHT22;6424;48.520;11.228;2023-04-03T06:45:24;2.70;99.90
12720;DHT22;6424;48.520;11.228;2023-04-03T06:48:06;2.80;99.90
12720;DHT22;6424;48.520;11.228;2023-04-03T06:50:46;2.80;99.90
12720;DHT22;6424;48.520;11.228;2023-04-03T06:53:27;2.80;99.90
12720;DHT22;6424;48.520;11.228;2023-04-03T06:55:53;2.80;99.90
12720;DHT22;6424;48.520;11.228;2023-04-03T06:58:34;2.80;99.90
12720;DHT22;6424;48.520;11.228;2023-04-03T07:01:16;2.90;99.90
12720;DHT22;6424;48.520;11.228;2023-04-03T07:03:58;2.90;99.90
12720;DHT22;6424;48.520;11.228;2023-04-03T07:06:39;2.90;99.90
12720;DHT22;6424;48.520;11.228;2023-04-03T07:09:20;2.90;99.90
12720;DHT22;6424;48.520;11.228;2023-04-03T07:12:01;3.00;99.90
12720;DHT22;6424;48.520;11.228;2023-04-03T07:14:42;3.10;99.90
12720;DHT22;6424;48.520;11.228;2023-04-03T07:17:23;3.20;99.90
12720;DHT22;6424;48.520;11.228;2023-04-03T07:20:04;3.20;99.90
12720;DHT22;6424;48.520;11.228;2023-04-03T07:22:45;3.10;99.90
12720;DHT22;6424;48.520;11.228;2023-04-03T07:25:26;3.20;99.90
12720;DHT22;6424;48.520;11.228;2023-04-03T07:27:52;3.20;99.90
12720;DHT22;6424;48.520;11.228;2023-04-03T07:30:34;3.20;99.90
12720;DHT22;6424;48.520;11.228;2023-04-03T07:33:20;3.30;99.90
12720;DHT22;6424;48.520;11.228;2023-04-03T07:36:01;3.20;99.90
12720;DHT22;6424;48.520;11.228;2023-04-03T07:38:42;3.10;99.90
12720;DHT22;6424;48.520;11.228;2023-04-03T07:41:15;3.20;99.90
12720;DHT22;6424;48.520;11.228;2023-04-03T07:43:56;3.20;99.90
12720;DHT22;6424;48.520;11.228;2023-04-03T07:46:22;3.30;99.90
12720;DHT22;6424;48.520;11.228;2023-04-03T07:48:48;3.30;99.90
12720;DHT22;6424;48.520;11.228;2023-04-03T07:51:29;3.30;99.90
12720;DHT22;6424;48.520;11.228;2023-04-03T07:54:10;3.30;99.90
12720;DHT22;6424;48.520;11.228;2023-04-03T07:56:51;3.30;99.90
12720;DHT22;6424;48.520;11.228;2023-04-03T07:59:32;3.40;99.90
12720;DHT22;6424;48.520;11.228;2023-04-03T08:02:13;3.50;99.90
12720;DHT22;6424;48.520;11.228;2023-04-03T08:04:53;3.40;99.90
12720;DHT22;6424;48.520;11.228;2023-04-03T08:07:34;3.40;99.90
12720;DHT22;6424;48.520;11.228;2023-04-03T08:10:17;3.40;99.90
12720;DHT22;6424;48.520;11.228;2023-04-03T08:12:57;3.40;99.90
12720;DHT22;6424;48.520;11.228;2023-04-03T08:15:38;3.50;99.90
12720;DHT22;6424;48.520;11.228;2023-04-03T08:18:19;3.50;99.90
12720;DHT22;6424;48.520;11.228;2023-04-03T08:20:47;3.50;99.90
12720;DHT22;6424;48.520;11.228;2023-04-03T08:23:28;3.60;99.90
12720;DHT22;6424;48.520;11.228;2023-04-03T08:26:16;3.60;99.90
12720;DHT22;6424;48.520;11.228;2023-04-03T08:28:58;3.60;99.90
12720;DHT22;6424;48.520;11.228;2023-04-03T08:31:39;3.60;99.90
12720;DHT22;6424;48.520;11.228;2023-04-03T08:34:20;3.70;99.90
12720;DHT22;6424;48.520;11.228;2023-04-03T08:37:01;3.80;99.90
12720;DHT22;6424;48.520;11.228;2023-04-03T08:39:42;3.90;99.90
12720;DHT22;6424;48.520;11.228;2023-04-03T08:45:47;3.90;99.90
12720;DHT22;6424;48.520;11.228;2023-04-03T08:48:36;3.90;99.90
12720;DHT22;6424;48.520;11.228;2023-04-03T08:51:20;3.90;99.90
12720;DHT22;6424;48.520;11.228;2023-04-03T08:54:15;3.90;99.90
12720;DHT22;6424;48.520;11.228;2023-04-03T08:57:02;4.00;99.90
12720;DHT22;6424;48.520;11.228;2023-04-03T08:59:44;4.00;99.90
12720;DHT22;6424;48.520;11.228;2023-04-03T09:02:25;4.00;99.90
12720;DHT22;6424;48.520;11.228;2023-04-03T09:05:41;4.00;99.90
12720;DHT22;6424;48.520;11.228;2023-04-03T09:08:33;4.10;99.90
12720;DHT22;6424;48.520;11.228;2023-04-03T09:14:02;4.20;99.90
12720;DHT22;6424;48.520;11.228;2023-04-03T09:17:00;4.20;99.90
12720;DHT22;6424;48.520;11.228;2023-04-03T09:22:40;4.20;99.90
12720;DHT22;6424;48.520;11.228;2023-04-03T09:25:23;4.30;99.90
12720;DHT22;6424;48.520;11.228;2023-04-03T09:28:05;4.40;99.90
12720;DHT22;6424;48.520;11.228;2023-04-03T09:30:50;4.50;99.90
12720;DHT22;6424;48.520;11.228;2023-04-03T09:33:31;4.50;99.90
12720;DHT22;6424;48.520;11.228;2023-04-03T09:36:12;4.50;99.90
12720;DHT22;6424;48.520;11.228;2023-04-03T09:39:16;4.40;99.90
12720;DHT22;6424;48.520;11.228;2023-04-03T09:42:03;4.30;99.90
12720;DHT22;6424;48.520;11.228;2023-04-03T09:44:57;4.30;99.90
12720;DHT22;6424;48.520;11.228;2023-04-03T09:47:38;4.30;99.90
12720;DHT22;6424;48.520;11.228;2023-04-03T09:50:22;4.40;99.90
12720;DHT22;6424;48.520;11.228;2023-04-03T09:53:12;4.40;99.90
12720;DHT22;6424;48.520;11.228;2023-04-03T10:01:42;4.50;99.90
12720;DHT22;6424;48.520;11.228;2023-04-03T10:04:23;4.50;99.90
12720;DHT22;6424;48.520;11.228;2023-04-03T10:10:28;4.50;99.90
12720;DHT22;6424;48.520;11.228;2023-04-03T10:13:18;4.50;99.90
12720;DHT22;6424;48.520;11.228;2023-04-03T10:19:03;4.50;99.90
12720;DHT22;6424;48.520;11.228;2023-04-03T10:21:55;4.40;99.90
12720;DHT22;6424;48.520;11.228;2023-04-03T10:27:39;4.50;99.90
12720;DHT22;6424;48.520;11.228;2023-04-03T10:34:06;4.50;99.90
12720;DHT22;6424;48.520;11.228;2023-04-03T10:37:11;4.50;99.90
12720;DHT22;6424;48.520;11.228;2023-04-03T10:40:01;4.60;99.90
12720;DHT22;6424;48.520;11.228;2023-04-03T10:46:03;4.60;99.90
12720;DHT22;6424;48.520;11.228;2023-04-03T10:57:33;4.60;99.90
12720;DHT22;6424;48.520;11.228;2023-04-03T11:00:19;4.60;99.90
12720;DHT22;6424;48.520;11.228;2023-04-03T11:03:05;4.60;99.90
12720;DHT22;6424;48.520;11.228;2023-04-03T11:05:52;4.80;99.90
12720;DHT22;6424;48.520;11.228;2023-04-03T11:08:38;4.80;99.90
12720;DHT22;6424;48.520;11.228;2023-04-03T11:11:25;4.90;99.90
12720;DHT22;6424;48.520;11.228;2023-04-03T11:14:31;5.00;99.90
12720;DHT22;6424;48.520;11.228;2023-04-03T11:17:33;5.10;99.90
12720;DHT22;6424;48.520;11.228;2023-04-03T11:20:21;5.20;99.90
12720;DHT22;6424;48.520;11.228;2023-04-03T11:23:30;5.20;99.90
12720;DHT22;6424;48.520;11.228;2023-04-03T11:26:11;5.30;99.90
12720;DHT22;6424;48.520;11.228;2023-04-03T11:28:59;5.30;99.90
12720;DHT22;6424;48.520;11.228;2023-04-03T11:34:40;6.00;99.90
12720;DHT22;6424;48.520;11.228;2023-04-03T11:43:07;6.20;99.90
12720;DHT22;6424;48.520;11.228;2023-04-03T11:46:06;6.30;99.90
12720;DHT22;6424;48.520;11.228;2023-04-03T11:48:49;6.40;99.90
12720;DHT22;6424;48.520;11.228;2023-04-03T11:51:44;6.40;99.90
12720;DHT22;6424;48.520;11.228;2023-04-03T11:54:42;6.30;99.90
12720;DHT22;6424;48.520;11.228;2023-04-03T11:57:44;6.30;99.90
12720;DHT22;6424;48.520;11.228;2023-04-03T12:03:57;6.70;99.90
12720;DHT22;6424;48.520;11.228;2023-04-03T12:09:56;6.80;94.90
12720;DHT22;6424;48.520;11.228;2023-04-03T12:12:39;6.60;94.50
12720;DHT22;6424;48.520;11.228;2023-04-03T12:15:21;6.50;95.60
12720;DHT22;6424;48.520;11.228;2023-04-03T12:18:31;6.40;97.00
12720;DHT22;6424;48.520;11.228;2023-04-03T12:30:35;5.90;97.20
12720;DHT22;6424;48.520;11.228;2023-04-03T12:32:55;5.80;96.50
12720;DHT22;6424;48.520;11.228;2023-04-03T12:35:55;5.70;96.70
12720;DHT22;6424;48.520;11.228;2023-04-03T12:38:58;5.80;95.50
12720;DHT22;6424;48.520;11.228;2023-04-03T12:42:03;5.80;94.10
12720;DHT22;6424;48.520;11.228;2023-04-03T12:45:16;5.80;95.00
12720;DHT22;6424;48.520;11.228;2023-04-03T12:48:01;5.90;96.40
12720;DHT22;6424;48.520;11.228;2023-04-03T12:50:30;5.90;94.50
12720;DHT22;6424;48.520;11.228;2023-04-03T12:53:18;6.00;94.40
12720;DHT22;6424;48.520;11.228;2023-04-03T12:55:45;6.00;93.50
12720;DHT22;6424;48.520;11.228;2023-04-03T12:58:28;6.00;93.30
12720;DHT22;6424;48.520;11.228;2023-04-03T13:01:16;6.00;94.60
12720;DHT22;6424;48.520;11.228;2023-04-03T13:03:58;6.00;94.10
12720;DHT22;6424;48.520;11.228;2023-04-03T13:06:41;6.10;93.80
12720;DHT22;6424;48.520;11.228;2023-04-03T13:09:25;6.20;91.60
12720;DHT22;6424;48.520;11.228;2023-04-03T13:12:15;6.20;90.50
12720;DHT22;6424;48.520;11.228;2023-04-03T13:14:54;6.20;91.60
12720;DHT22;6424;48.520;11.228;2023-04-03T13:17:38;6.30;91.00
12720;DHT22;6424;48.520;11.228;2023-04-03T13:20:29;6.30;90.90
12720;DHT22;6424;48.520;11.228;2023-04-03T13:23:13;6.40;90.10
12720;DHT22;6424;48.520;11.228;2023-04-03T13:25:55;6.30;85.90
12720;DHT22;6424;48.520;11.228;2023-04-03T13:28:40;6.20;86.20
12720;DHT22;6424;48.520;11.228;2023-04-03T13:31:38;6.00;84.90
12720;DHT22;6424;48.520;11.228;2023-04-03T13:34:21;6.00;86.30
12720;DHT22;6424;48.520;11.228;2023-04-03T13:39:36;6.00;82.20
12720;DHT22;6424;48.520;11.228;2023-04-03T13:42:29;6.20;86.70
12720;DHT22;6424;48.520;11.228;2023-04-03T13:45:24;6.50;83.20
12720;DHT22;6424;48.520;11.228;2023-04-03T13:47:54;6.60;81.80
12720;DHT22;6424;48.520;11.228;2023-04-03T13:50:59;6.50;80.30
12720;DHT22;6424;48.520;11.228;2023-04-03T13:56:31;6.20;80.00
12720;DHT22;6424;48.520;11.228;2023-04-03T14:07:24;6.30;79.30
12720;DHT22;6424;48.520;11.228;2023-04-03T14:10:05;6.30;77.10
12720;DHT22;6424;48.520;11.228;2023-04-03T14:12:36;6.30;77.00
12720;DHT22;6424;48.520;11.228;2023-04-03T14:15:24;6.30;77.30
12720;DHT22;6424;48.520;11.228;2023-04-03T14:17:52;6.60;75.10
12720;DHT22;6424;48.520;11.228;2023-04-03T14:20:33;6.80;72.60
12720;DHT22;6424;48.520;11.228;2023-04-03T14:23:14;6.80;75.00
12720;DHT22;6424;48.520;11.228;2023-04-03T14:25:55;6.70;73.90
12720;DHT22;6424;48.520;11.228;2023-04-03T14:28:21;6.50;76.60
12720;DHT22;6424;48.520;11.228;2023-04-03T14:31:02;6.20;79.10
12720;DHT22;6424;48.520;11.228;2023-04-03T14:33:44;6.10;75.90
12720;DHT22;6424;48.520;11.228;2023-04-03T14:36:27;6.00;75.40
12720;DHT22;6424;48.520;11.228;2023-04-03T14:39:15;5.90;76.70
12720;DHT22;6424;48.520;11.228;2023-04-03T14:41:56;6.00;77.30
12720;DHT22;6424;48.520;11.228;2023-04-03T14:44:37;6.00;73.70
12720;DHT22;6424;48.520;11.228;2023-04-03T14:47:24;5.90;74.20
12720;DHT22;6424;48.520;11.228;2023-04-03T14:50:07;6.10;76.60
12720;DHT22;6424;48.520;11.228;2023-04-03T14:52:54;6.40;75.70
12720;DHT22;6424;48.520;11.228;2023-04-03T14:55:35;6.60;74.10
12720;DHT22;6424;48.520;11.228;2023-04-03T14:58:19;6.50;73.40
12720;DHT22;6424;48.520;11.228;2023-04-03T15:01:00;6.30;74.10
12720;DHT22;6424;48.520;11.228;2023-04-03T15:03:41;6.00;74.20
12720;DHT22;6424;48.520;11.228;2023-04-03T15:06:21;5.90;76.30
12720;DHT22;6424;48.520;11.228;2023-04-03T15:09:02;5.80;75.90
12720;DHT22;6424;48.520;11.228;2023-04-03T15:11:43;5.80;75.00
12720;DHT22;6424;48.520;11.228;2023-04-03T15:14:24;6.00;76.20
12720;DHT22;6424;48.520;11.228;2023-04-03T15:17:06;6.20;75.60
12720;DHT22;6424;48.520;11.228;2023-04-03T15:19:49;6.50;74.50
12720;DHT22;6424;48.520;11.228;2023-04-03T15:22:30;6.60;75.80
12720;DHT22;6424;48.520;11.228;2023-04-03T15:25:10;6.60;73.60
12720;DHT22;6424;48.520;11.228;2023-04-03T15:27:37;6.30;73.00
12720;DHT22;6424;48.520;11.228;2023-04-03T15:30:18;6.10;75.90
12720;DHT22;6424;48.520;11.228;2023-04-03T15:33:00;5.80;75.10
12720;DHT22;6424;48.520;11.228;2023-04-03T15:35:25;5.60;76.30
12720;DHT22;6424;48.520;11.228;2023-04-03T15:38:06;5.60;76.80
12720;DHT22;6424;48.520;11.228;2023-04-03T15:40:47;5.70;76.30
12720;DHT22;6424;48.520;11.228;2023-04-03T15:43:28;5.80;73.40
12720;DHT22;6424;48.520;11.228;2023-04-03T15:46:08;5.90;74.20
12720;DHT22;6424;48.520;11.228;2023-04-03T15:48:49;6.00;72.40
12720;DHT22;6424;48.520;11.228;2023-04-03T15:51:15;5.90;72.70
12720;DHT22;6424;48.520;11.228;2023-04-03T15:53:56;5.70;72.40
12720;DHT22;6424;48.520;11.228;2023-04-03T15:56:37;5.60;72.90
12720;DHT22;6424;48.520;11.228;2023-04-03T15:59:18;5.40;74.10
12720;DHT22;6424;48.520;11.228;2023-04-03T16:01:59;5.30;75.40
12720;DHT22;6424;48.520;11.228;2023-04-03T16:04:42;5.30;76.70
12720;DHT22;6424;48.520;11.228;2023-04-03T16:07:22;5.40;73.50
12720;DHT22;6424;48.520;11.228;2023-04-03T16:10:04;5.50;73.80
12720;DHT22;6424;48.520;11.228;2023-04-03T16:12:30;5.70;76.10
12720;DHT22;6424;48.520;11.228;2023-04-03T16:15:11;5.80;78.00
12720;DHT22;6424;48.520;11.228;2023-04-03T16:17:53;5.80;76.20
12720;DHT22;6424;48.520;11.228;2023-04-03T16:20:34;5.60;75.10
12720;DHT22;6424;48.520;11.228;2023-04-03T16:23:16;5.50;75.60
12720;DHT22;6424;48.520;11.228;2023-04-03T16:25:41;5.30;76.30
12720;DHT22;6424;48.520;11.228;2023-04-03T16:28:26;5.20;77.10
12720;DHT22;6424;48.520;11.228;2023-04-03T16:31:07;5.10;78.20
12720;DHT22;6424;48.520;11.228;2023-04-03T16:33:33;5.00;77.30
12720;DHT22;6424;48.520;11.228;2023-04-03T16:36:00;5.00;77.20
12720;DHT22;6424;48.520;11.228;2023-04-03T16:38:40;4.90;76.60
12720;DHT22;6424;48.520;11.228;2023-04-03T16:41:21;4.90;76.40
12720;DHT22;6424;48.520;11.228;2023-04-03T16:44:02;4.80;78.50
12720;DHT22;6424;48.520;11.228;2023-04-03T16:46:28;4.90;80.00
12720;DHT22;6424;48.520;11.228;2023-04-03T16:49:09;4.90;80.20
12720;DHT22;6424;48.520;11.228;2023-04-03T16:51:51;4.90;78.30
12720;DHT22;6424;48.520;11.228;2023-04-03T16:54:32;4.80;78.40
12720;DHT22;6424;48.520;11.228;2023-04-03T16:57:13;4.80;79.70
12720;DHT22;6424;48.520;11.228;2023-04-03T16:59:39;4.80;80.50
12720;DHT22;6424;48.520;11.228;2023-04-03T17:02:21;4.80;81.70
12720;DHT22;6424;48.520;11.228;2023-04-03T17:05:05;4.80;80.60
12720;DHT22;6424;48.520;11.228;2023-04-03T17:07:46;4.70;80.80
12720;DHT22;6424;48.520;11.228;2023-04-03T17:10:27;4.60;81.90
12720;DHT22;6424;48.520;11.228;2023-04-03T17:13:08;4.60;82.80
12720;DHT22;6424;48.520;11.228;2023-04-03T17:15:49;4.50;83.30
12720;DHT22;6424;48.520;11.228;2023-04-03T17:18:31;4.50;83.40
12720;DHT22;6424;48.520;11.228;2023-04-03T17:21:13;4.50;82.30
12720;DHT22;6424;48.520;11.228;2023-04-03T17:23:58;4.50;82.00
12720;DHT22;6424;48.520;11.228;2023-04-03T17:26:41;4.40;81.80
12720;DHT22;6424;48.520;11.228;2023-04-03T17:29:22;4.30;83.70
12720;DHT22;6424;48.520;11.228;2023-04-03T17:32:02;4.20;85.10
12720;DHT22;6424;48.520;11.228;2023-04-03T17:34:46;4.10;83.70
12720;DHT22;6424;48.520;11.228;2023-04-03T17:37:27;4.00;85.30
12720;DHT22;6424;48.520;11.228;2023-04-03T17:40:08;3.90;87.00
12720;DHT22;6424;48.520;11.228;2023-04-03T17:42:34;3.90;88.00
12720;DHT22;6424;48.520;11.228;2023-04-03T17:45:15;3.90;88.40
12720;DHT22;6424;48.520;11.228;2023-04-03T17:47:55;3.80;88.70
12720;DHT22;6424;48.520;11.228;2023-04-03T17:50:36;3.70;89.60
12720;DHT22;6424;48.520;11.228;2023-04-03T17:53:17;3.60;89.70
12720;DHT22;6424;48.520;11.228;2023-04-03T17:55:58;3.50;90.20
12720;DHT22;6424;48.520;11.228;2023-04-03T17:58:39;3.40;90.30
12720;DHT22;6424;48.520;11.228;2023-04-03T18:01:22;3.40;90.40
12720;DHT22;6424;48.520;11.228;2023-04-03T18:04:04;3.30;90.40
12720;DHT22;6424;48.520;11.228;2023-04-03T18:06:48;3.30;90.50
12720;DHT22;6424;48.520;11.228;2023-04-03T18:09:31;3.20;90.40
12720;DHT22;6424;48.520;11.228;2023-04-03T18:12:13;3.10;90.70
12720;DHT22;6424;48.520;11.228;2023-04-03T18:14:53;3.10;90.30
12720;DHT22;6424;48.520;11.228;2023-04-03T18:17:34;3.00;90.70
12720;DHT22;6424;48.520;11.228;2023-04-03T18:20:15;3.00;91.40
12720;DHT22;6424;48.520;11.228;2023-04-03T18:22:58;3.00;91.70
12720;DHT22;6424;48.520;11.228;2023-04-03T18:25:39;2.90;92.10
12720;DHT22;6424;48.520;11.228;2023-04-03T18:28:19;2.90;92.50
12720;DHT22;6424;48.520;11.228;2023-04-03T18:31:01;2.80;92.50
12720;DHT22;6424;48.520;11.228;2023-04-03T18:33:43;2.80;92.60
12720;DHT22;6424;48.520;11.228;2023-04-03T18:36:25;2.80;92.70